createdAt,value
2023-03-30T00:01:15.692Z,49.37
2023-03-30T00:04:20.208Z,49.49
2023-03-30T00:07:26.215Z,49.04
2023-03-30T00:10:30.785Z,49.38
2023-03-30T00:13:35.936Z,49.08
2023-03-30T00:16:39.722Z,47.64
2023-03-30T00:19:44.364Z,48.30
2023-03-30T00:22:48.789Z,48.32
2023-03-30T00:25:53.100Z,48.42
2023-03-30T00:28:57.223Z,47.88
2023-03-30T00:32:02.090Z,47.29
2023-03-30T00:35:06.863Z,47.73
2023-03-30T00:38:11.098Z,48.40
2023-03-30T00:41:15.519Z,47.34
2023-03-30T00:44:56.665Z,46.04
2023-03-30T00:48:10.214Z,45.56
2023-03-30T00:51:15.919Z,43.86
2023-03-30T00:54:21.843Z,44.29
2023-03-30T00:57:28.416Z,42.04
2023-03-30T01:00:33.952Z,40.94
2023-03-30T01:03:46.476Z,41.08
2023-03-30T01:06:52.873Z,42.39
2023-03-30T01:09:57.403Z,42.80
2023-03-30T01:13:02.390Z,41.81
2023-03-30T01:16:24.808Z,43.10
2023-03-30T01:19:49.096Z,43.70
2023-03-30T01:23:28.077Z,45.32
2023-03-30T01:26:35.339Z,47.18
2023-03-30T01:30:25.602Z,45.13
2023-03-30T01:33:45.293Z,46.46
2023-03-30T01:37:14.054Z,44.15
2023-03-30T01:41:10.923Z,44.52
2023-03-30T01:44:27.302Z,40.90
2023-03-30T01:47:44.336Z,40.69
2023-03-30T01:50:54.300Z,38.91
2023-03-30T01:54:23.603Z,39.52
2023-03-30T01:57:43.114Z,40.29
2023-03-30T02:00:51.082Z,41.88
2023-03-30T02:03:59.901Z,42.20
2023-03-30T02:07:11.296Z,41.34
2023-03-30T02:10:31.853Z,41.09
2023-03-30T02:13:43.478Z,40.08
2023-03-30T02:16:57.077Z,40.53
2023-03-30T02:20:07.400Z,40.34
2023-03-30T02:23:18.862Z,40.88
2023-03-30T02:26:24.082Z,40.22
2023-03-30T02:29:29.856Z,39.32
2023-03-30T02:32:43.041Z,38.84
2023-03-30T02:35:47.277Z,38.58
2023-03-30T02:39:27.432Z,38.99
2023-03-30T02:43:12.983Z,38.74
2023-03-30T02:46:38.607Z,37.29
2023-03-30T02:49:43.039Z,39.85
2023-03-30T02:53:11.115Z,37.12
2023-03-30T02:56:34.916Z,39.08
2023-03-30T03:00:09.012Z,38.43
2023-03-30T03:03:25.473Z,39.59
2023-03-30T03:06:33.896Z,39.70
2023-03-30T03:09:38.191Z,38.83
2023-03-30T03:12:45.476Z,37.18
2023-03-30T03:15:51.842Z,36.19
2023-03-30T03:18:56.248Z,34.78
2023-03-30T03:22:01.820Z,35.68
2023-03-30T03:25:11.184Z,35.75
2023-03-30T03:28:32.907Z,34.72
2023-03-30T03:31:42.864Z,35.55
2023-03-30T03:34:47.315Z,32.33
2023-03-30T03:37:51.842Z,30.65
2023-03-30T03:40:58.834Z,30.13
2023-03-30T03:44:03.910Z,28.90
2023-03-30T03:47:08.398Z,29.09
2023-03-30T03:50:12.849Z,29.00
2023-03-30T03:53:17.332Z,29.43
2023-03-30T03:56:22.193Z,28.42
2023-03-30T03:59:26.707Z,26.95
2023-03-30T04:02:31.893Z,27.32
2023-03-30T04:05:36.887Z,27.25
2023-03-30T04:08:41.195Z,26.17
2023-03-30T04:12:03.343Z,24.39
2023-03-30T04:15:28.142Z,25.27
2023-03-30T04:18:47.733Z,25.75
2023-03-30T04:22:16.620Z,24.58
2023-03-30T04:25:37.863Z,24.40
2023-03-30T04:29:21.666Z,25.18
2023-03-30T04:33:04.697Z,25.15
2023-03-30T04:36:30.478Z,24.52
2023-03-30T04:39:42.362Z,24.77
2023-03-30T04:43:16.685Z,24.78
2023-03-30T04:46:31.063Z,24.01
2023-03-30T04:49:49.510Z,24.68
2023-03-30T04:52:59.284Z,24.61
2023-03-30T04:56:23.718Z,24.36
2023-03-30T04:59:38.784Z,24.01
2023-03-30T05:03:07.434Z,24.09
2023-03-30T05:06:42.797Z,24.19
2023-03-30T05:10:19.232Z,24.52
2023-03-30T05:14:00.985Z,25.47
2023-03-30T05:17:21.123Z,25.43
2023-03-30T05:20:37.735Z,26.12
2023-03-30T05:23:58.978Z,25.57
2023-03-30T05:27:38.456Z,25.75
2023-03-30T05:31:12.159Z,24.97
2023-03-30T05:34:26.167Z,25.59
2023-03-30T05:37:52.700Z,25.26
2023-03-30T05:41:29.288Z,25.17
2023-03-30T05:44:57.210Z,25.02
2023-03-30T05:48:35.110Z,24.63
2023-03-30T05:51:55.932Z,24.90
2023-03-30T05:55:31.432Z,24.83
2023-03-30T05:58:53.005Z,25.35
2023-03-30T06:02:20.726Z,25.21
2023-03-30T06:05:25.719Z,25.78
2023-03-30T06:08:31.464Z,26.02
2023-03-30T06:11:39.661Z,25.91
2023-03-30T06:14:54.278Z,25.77
2023-03-30T06:18:24.613Z,25.91
2023-03-30T06:21:41.580Z,25.96
2023-03-30T06:25:05.053Z,26.28
2023-03-30T06:28:09.682Z,26.31
2023-03-30T06:31:14.212Z,25.94
2023-03-30T06:34:19.832Z,26.44
2023-03-30T06:37:24.471Z,26.50
2023-03-30T06:40:28.799Z,26.65
2023-03-30T06:43:34.146Z,26.77
2023-03-30T06:46:45.549Z,26.45
2023-03-30T06:49:49.546Z,27.10
2023-03-30T06:53:12.423Z,26.99
2023-03-30T06:56:19.526Z,27.31
2023-03-30T06:59:40.615Z,26.96
2023-03-30T07:03:11.276Z,26.36
2023-03-30T07:06:25.216Z,27.10
2023-03-30T07:09:29.509Z,27.11
2023-03-30T07:12:33.850Z,27.55
2023-03-30T07:15:38.713Z,26.96
2023-03-30T07:18:42.965Z,26.15
2023-03-30T07:21:47.350Z,27.61
2023-03-30T07:24:54.105Z,27.09
2023-03-30T07:27:58.640Z,26.93
2023-03-30T07:31:12.068Z,26.93
2023-03-30T07:34:18.689Z,27.33
2023-03-30T07:37:29.726Z,27.77
2023-03-30T07:40:34.357Z,27.10
2023-03-30T07:43:43.989Z,27.25
2023-03-30T07:46:48.387Z,27.37
2023-03-30T07:50:01.212Z,27.20
2023-03-30T07:53:06.473Z,27.40
2023-03-30T07:56:11.520Z,27.58
2023-03-30T07:59:25.082Z,27.79
2023-03-30T08:02:33.648Z,27.49
2023-03-30T08:05:38.038Z,27.64
2023-03-30T08:08:51.806Z,28.22
2023-03-30T08:11:56.236Z,27.55
2023-03-30T08:15:05.432Z,26.82
2023-03-30T08:18:09.891Z,26.79
2023-03-30T08:21:14.694Z,26.79
2023-03-30T08:24:34.814Z,26.85
2023-03-30T08:27:39.240Z,26.72
2023-03-30T08:30:43.177Z,26.67
2023-03-30T08:33:47.389Z,26.57
2023-03-30T08:36:51.744Z,26.23
2023-03-30T08:39:58.747Z,26.08
2023-03-30T08:43:23.759Z,26.01
2023-03-30T08:46:30.241Z,26.46
2023-03-30T08:49:39.832Z,26.77
2023-03-30T08:52:47.823Z,26.49
2023-03-30T08:56:34.191Z,26.08
2023-03-30T08:59:47.372Z,25.73
2023-03-30T09:03:00.720Z,26.24
2023-03-30T09:06:25.834Z,25.97
2023-03-30T09:09:33.400Z,26.50
2023-03-30T09:12:52.583Z,25.76
2023-03-30T09:16:12.525Z,26.44
2023-03-30T09:19:27.263Z,27.07
2023-03-30T09:22:43.162Z,27.19
2023-03-30T09:25:57.805Z,27.42
2023-03-30T09:29:20.824Z,27.80
2023-03-30T09:32:38.142Z,27.98
2023-03-30T09:35:45.562Z,28.57
2023-03-30T09:38:51.222Z,28.96
2023-03-30T09:42:29.248Z,28.98
2023-03-30T09:45:35.731Z,29.86
2023-03-30T09:48:42.413Z,30.54
2023-03-30T09:52:26.542Z,32.24
2023-03-30T09:55:36.570Z,31.82
2023-03-30T09:58:40.891Z,31.40
2023-03-30T10:01:45.105Z,30.43
2023-03-30T10:04:56.122Z,31.00
2023-03-30T10:08:04.124Z,31.27
2023-03-30T10:11:09.905Z,31.43
2023-03-30T10:14:28.977Z,33.13
2023-03-30T10:17:34.055Z,33.03
2023-03-30T10:20:40.206Z,33.61
2023-03-30T10:23:48.142Z,34.42
2023-03-30T10:26:56.633Z,34.78
2023-03-30T10:30:12.374Z,35.67
2023-03-30T10:33:17.037Z,36.81
2023-03-30T10:36:22.445Z,37.10
2023-03-30T10:39:33.446Z,37.07
2023-03-30T10:42:38.301Z,36.71
2023-03-30T10:45:50.061Z,38.71
2023-03-30T10:48:57.468Z,38.62
2023-03-30T10:52:11.017Z,38.32
2023-03-30T10:55:21.562Z,39.15
2023-03-30T10:58:31.694Z,39.24
2023-03-30T11:01:57.376Z,39.00
2023-03-30T11:05:13.305Z,40.27
2023-03-30T11:08:23.715Z,40.63
2023-03-30T11:11:41.186Z,40.96
2023-03-30T11:14:53.954Z,42.61
2023-03-30T11:18:22.865Z,43.43
2023-03-30T11:21:35.526Z,42.63
2023-03-30T11:24:43.119Z,42.32
2023-03-30T11:28:31.739Z,44.17
2023-03-30T11:31:45.116Z,43.83
2023-03-30T11:35:07.137Z,42.95
2023-03-30T11:38:14.751Z,43.30
2023-03-30T11:41:33.594Z,43.82
2023-03-30T11:44:38.793Z,43.27
2023-03-30T11:48:16.574Z,46.98
2023-03-30T11:51:48.308Z,45.62
2023-03-30T11:55:03.039Z,44.08
2023-03-30T11:58:24.866Z,46.10
2023-03-30T12:01:59.705Z,46.94
2023-03-30T12:05:21.846Z,46.81
2023-03-30T12:09:13.988Z,47.37
2023-03-30T12:12:25.371Z,46.67
2023-03-30T12:15:39.220Z,48.87
2023-03-30T12:18:49.868Z,47.80
2023-03-30T12:22:27.247Z,47.15
2023-03-30T12:26:15.345Z,48.29
2023-03-30T12:30:00.272Z,45.90
2023-03-30T12:33:04.563Z,47.39
2023-03-30T12:36:40.816Z,50.35
2023-03-30T12:40:00.653Z,48.79
2023-03-30T12:43:17.496Z,49.89
2023-03-30T12:46:36.714Z,49.88
2023-03-30T12:50:10.269Z,50.34
2023-03-30T12:53:32.547Z,50.14
2023-03-30T12:56:52.327Z,48.09
2023-03-30T13:00:26.776Z,51.70
2023-03-30T13:03:40.191Z,49.62
2023-03-30T13:06:50.346Z,50.64
2023-03-30T13:09:56.466Z,52.26
2023-03-30T13:13:03.196Z,50.33
2023-03-30T13:16:11.102Z,49.90
2023-03-30T13:19:33.872Z,49.08
2023-03-30T13:22:38.323Z,47.21
2023-03-30T13:26:04.181Z,46.51
2023-03-30T13:29:13.020Z,48.00
2023-03-30T13:32:41.904Z,47.62
2023-03-30T13:36:17.258Z,47.40
2023-03-30T13:39:44.712Z,47.69
2023-03-30T13:43:20.445Z,47.87
2023-03-30T13:46:49.328Z,51.66
2023-03-30T13:50:04.219Z,50.58
2023-03-30T13:53:12.138Z,49.95
2023-03-30T13:56:17.049Z,49.58
2023-03-30T13:59:25.752Z,49.95
2023-03-30T14:02:32.042Z,51.15
2023-03-30T14:05:39.648Z,51.75
2023-03-30T14:08:48.573Z,52.14
2023-03-30T14:12:03.368Z,52.17
2023-03-30T14:15:26.656Z,52.83
2023-03-30T14:18:31.609Z,53.03
2023-03-30T14:21:38.935Z,52.78
2023-03-30T14:24:58.223Z,53.02
2023-03-30T14:28:22.471Z,54.45
2023-03-30T14:31:30.303Z,52.69
2023-03-30T14:34:35.172Z,53.07
2023-03-30T14:37:40.320Z,54.28
2023-03-30T14:40:45.458Z,54.17
2023-03-30T14:43:57.736Z,54.12
2023-03-30T14:47:02.075Z,54.51
2023-03-30T14:50:11.364Z,54.85
2023-03-30T14:53:17.276Z,53.82
2023-03-30T14:56:23.661Z,54.68
2023-03-30T14:59:29.756Z,53.87
2023-03-30T15:02:38.356Z,53.73
2023-03-30T15:05:43.988Z,57.48
2023-03-30T15:08:49.484Z,56.40
2023-03-30T15:12:04.439Z,55.90
2023-03-30T15:15:13.515Z,54.15
2023-03-30T15:18:22.831Z,54.02
2023-03-30T15:21:31.502Z,54.70
2023-03-30T15:24:38.324Z,55.80
2023-03-30T15:27:48.212Z,55.73
2023-03-30T15:30:54.597Z,56.33
2023-03-30T15:34:02.883Z,55.86
2023-03-30T15:37:22.994Z,56.79
2023-03-30T15:40:37.920Z,55.97
2023-03-30T15:43:58.611Z,56.73
2023-03-30T15:47:03.641Z,56.30
2023-03-30T15:50:14.550Z,57.14
2023-03-30T15:53:50.188Z,57.62
2023-03-30T15:57:09.271Z,57.23
2023-03-30T16:00:21.525Z,55.44
2023-03-30T16:03:48.616Z,57.38
2023-03-30T16:06:56.375Z,57.32
2023-03-30T16:10:03.235Z,57.28
2023-03-30T16:13:08.961Z,56.26
2023-03-30T16:16:15.093Z,56.53
2023-03-30T16:19:20.698Z,55.80
2023-03-30T16:22:24.943Z,55.79
2023-03-30T16:28:37.132Z,56.67
2023-03-30T16:31:41.682Z,57.32
2023-03-30T16:34:47.124Z,58.32
2023-03-30T16:37:51.145Z,58.04
2023-03-30T16:40:58.840Z,59.70
2023-03-30T16:44:03.005Z,58.88
2023-03-30T16:50:28.712Z,59.28
2023-03-30T16:53:33.296Z,59.91
2023-03-30T16:56:38.649Z,59.06
2023-03-30T16:59:43.392Z,59.99
2023-03-30T17:02:48.395Z,60.66
2023-03-30T17:05:52.822Z,59.46
2023-03-30T17:08:57.010Z,59.12
2023-03-30T17:12:01.524Z,59.16
2023-03-30T17:15:09.595Z,59.15
2023-03-30T17:18:22.305Z,60.04
2023-03-30T17:21:26.989Z,61.13
2023-03-30T17:24:31.155Z,63.81
2023-03-30T17:27:35.675Z,62.97
2023-03-30T17:30:43.984Z,61.55
2023-03-30T17:33:49.314Z,61.67
2023-03-30T17:36:53.898Z,63.12
2023-03-30T17:39:58.208Z,63.11
2023-03-30T17:43:02.274Z,62.62
2023-03-30T17:46:07.047Z,62.31
2023-03-30T17:49:18.623Z,61.38
2023-03-30T17:52:23.070Z,59.58
2023-03-30T17:55:30.217Z,60.32
2023-03-30T17:58:36.744Z,60.06
2023-03-30T18:01:41.188Z,59.30
2023-03-30T18:04:45.554Z,59.69
2023-03-30T18:07:49.752Z,60.38
2023-03-30T18:10:58.750Z,59.79
2023-03-30T18:14:03.295Z,60.77
2023-03-30T18:17:07.955Z,61.62
2023-03-30T18:20:22.108Z,60.93
2023-03-30T18:23:26.787Z,61.09
2023-03-30T18:26:33.046Z,62.11
2023-03-30T18:29:37.810Z,62.21
2023-03-30T18:32:47.291Z,63.91
2023-03-30T18:35:53.157Z,65.02
2023-03-30T18:38:58.024Z,64.97
2023-03-30T18:42:02.477Z,63.21
2023-03-30T18:45:07.508Z,63.26
2023-03-30T18:48:17.265Z,61.98
2023-03-30T18:51:22.522Z,61.67
2023-03-30T18:54:27.062Z,62.09
2023-03-30T18:57:31.568Z,62.61
2023-03-30T19:00:37.152Z,62.80
2023-03-30T19:03:41.617Z,62.68
2023-03-30T19:06:47.071Z,63.99
2023-03-30T19:09:51.680Z,63.81
2023-03-30T19:12:57.060Z,64.23
2023-03-30T19:16:05.238Z,63.34
2023-03-30T19:19:15.405Z,63.93
2023-03-30T19:22:19.904Z,64.84
2023-03-30T19:25:26.930Z,64.94
2023-03-30T19:28:31.974Z,64.99
2023-03-30T19:31:38.269Z,62.96
2023-03-30T19:34:42.707Z,61.72
2023-03-30T19:37:47.711Z,62.13
2023-03-30T19:40:52.422Z,63.89
2023-03-30T19:43:56.773Z,64.63
2023-03-30T19:47:01.380Z,66.67
2023-03-30T19:50:11.196Z,65.87
2023-03-30T19:53:15.894Z,65.75
2023-03-30T19:56:45.083Z,65.37
2023-03-30T19:59:50.532Z,64.64
2023-03-30T20:02:56.147Z,64.90
2023-03-30T20:06:00.553Z,64.60
2023-03-30T20:09:05.146Z,63.47
2023-03-30T20:12:10.213Z,64.57
2023-03-30T20:15:15.314Z,64.85
2023-03-30T20:18:21.493Z,65.75
2023-03-30T20:21:27.403Z,65.47
2023-03-30T20:24:31.848Z,65.27
2023-03-30T20:27:37.078Z,64.89
2023-03-30T20:30:42.192Z,64.89
2023-03-30T20:33:46.448Z,65.08
2023-03-30T20:36:51.436Z,64.97
2023-03-30T20:40:04.207Z,64.87
2023-03-30T20:43:11.436Z,65.77
2023-03-30T20:46:19.202Z,65.45
2023-03-30T20:49:23.411Z,65.14
2023-03-30T20:52:28.651Z,64.71
2023-03-30T20:55:32.790Z,64.30
2023-03-30T20:58:38.629Z,63.49
2023-03-30T21:01:44.512Z,63.53
2023-03-30T21:04:49.119Z,63.95
2023-03-30T21:07:56.869Z,63.83
2023-03-30T21:11:02.724Z,64.18
2023-03-30T21:14:12.889Z,66.09
2023-03-30T21:17:17.370Z,65.13
2023-03-30T21:20:22.203Z,65.63
2023-03-30T21:23:27.456Z,64.15
2023-03-30T21:26:32.362Z,63.21
2023-03-30T21:29:36.826Z,61.77
2023-03-30T21:32:42.192Z,61.26
2023-03-30T21:35:54.552Z,60.50
2023-03-30T21:39:00.255Z,59.58
2023-03-30T21:42:03.869Z,62.66
2023-03-30T21:45:08.337Z,62.17
2023-03-30T21:48:15.670Z,62.17
2023-03-30T21:51:27.489Z,62.11
2023-03-30T21:54:32.286Z,61.10
2023-03-30T21:57:46.006Z,57.81
2023-03-30T22:00:58.329Z,57.51
2023-03-30T22:04:12.988Z,57.43
2023-03-30T22:07:17.473Z,54.60
2023-03-30T22:10:22.296Z,54.46
2023-03-30T22:13:27.554Z,51.79
2023-03-30T22:16:33.983Z,51.44
2023-03-30T22:19:38.717Z,49.97
2023-03-30T22:22:43.091Z,49.36
2023-03-30T22:25:47.796Z,49.06
2023-03-30T22:28:52.169Z,46.32
2023-03-30T22:31:57.026Z,47.82
2023-03-30T22:35:01.918Z,47.92
2023-03-30T22:38:07.341Z,47.89
2023-03-30T22:41:11.318Z,46.50
2023-03-30T22:44:15.550Z,47.54
2023-03-30T22:47:19.422Z,46.50
2023-03-30T22:50:25.276Z,43.75
2023-03-30T22:53:31.057Z,45.22
2023-03-30T22:56:35.428Z,42.56
2023-03-30T22:59:39.404Z,43.55
2023-03-30T23:02:44.713Z,45.64
2023-03-30T23:05:56.744Z,44.54
2023-03-30T23:09:05.357Z,43.37
2023-03-30T23:12:10.174Z,43.64
2023-03-30T23:15:15.160Z,41.77
2023-03-30T23:18:19.521Z,42.38
2023-03-30T23:21:23.589Z,42.98
2023-03-30T23:24:28.034Z,42.32
2023-03-30T23:27:32.088Z,41.46
2023-03-30T23:30:39.019Z,40.70
2023-03-30T23:33:44.405Z,39.71
2023-03-30T23:36:50.649Z,39.35
2023-03-30T23:39:54.944Z,39.90
2023-03-30T23:42:59.199Z,41.57
2023-03-30T23:46:03.168Z,41.12
2023-03-30T23:49:07.670Z,40.54
2023-03-30T23:52:12.756Z,41.43
2023-03-30T23:55:19.276Z,42.93
2023-03-30T23:58:24.369Z,41.93
